createdAt,value
2023-03-31T00:00:44.932Z,64.04
2023-03-31T00:01:44.785Z,64.06
2023-03-31T00:02:44.861Z,64.07
2023-03-31T00:03:45.853Z,64.09
2023-03-31T00:04:44.855Z,64.09
2023-03-31T00:05:44.731Z,64.08
2023-03-31T00:06:44.691Z,64.05
2023-03-31T00:07:44.760Z,64.06
2023-03-31T00:08:44.793Z,64.07
2023-03-31T00:09:45.791Z,64.05
2023-03-31T00:10:44.747Z,64.05
2023-03-31T00:11:45.597Z,64.08
2023-03-31T00:12:44.720Z,64.08
2023-03-31T00:13:44.592Z,64.09
2023-03-31T00:14:45.555Z,64.06
2023-03-31T00:15:45.684Z,64.09
2023-03-31T00:16:45.411Z,64.11
2023-03-31T00:17:44.664Z,64.15
2023-03-31T00:18:44.565Z,64.15
2023-03-31T00:19:44.598Z,64.15
2023-03-31T00:20:45.640Z,64.12
2023-03-31T00:21:44.538Z,64.09
2023-03-31T00:22:44.557Z,64.11
2023-03-31T00:23:44.493Z,64.11
2023-03-31T00:24:44.500Z,64.13
2023-03-31T00:25:44.540Z,64.15
2023-03-31T00:26:45.438Z,64.15
2023-03-31T00:27:44.545Z,64.15
2023-03-31T00:28:44.392Z,64.16
2023-03-31T00:29:44.505Z,64.15
2023-03-31T00:30:45.317Z,64.17
2023-03-31T00:31:45.366Z,64.14
2023-03-31T00:32:44.357Z,64.14
2023-03-31T00:33:44.382Z,64.12
2023-03-31T00:34:44.358Z,64.12
2023-03-31T00:35:47.090Z,64.14
2023-03-31T00:36:45.365Z,64.17
2023-03-31T00:37:44.365Z,64.13
2023-03-31T00:38:44.312Z,64.13
2023-03-31T00:39:44.393Z,64.13
2023-03-31T00:40:44.265Z,64.13
2023-03-31T00:41:44.299Z,64.14
2023-03-31T00:42:45.226Z,64.14
2023-03-31T00:43:44.260Z,64.17
2023-03-31T00:44:44.219Z,64.17
2023-03-31T00:45:44.197Z,64.18
2023-03-31T00:46:44.161Z,64.19
2023-03-31T00:47:44.372Z,64.23
2023-03-31T00:48:45.081Z,64.24
2023-03-31T00:49:44.221Z,64.28
2023-03-31T00:50:44.102Z,64.31
2023-03-31T00:51:44.207Z,64.34
2023-03-31T00:52:45.552Z,64.36
2023-03-31T00:53:44.047Z,64.40
2023-03-31T00:54:45.029Z,64.40
2023-03-31T00:55:44.033Z,64.41
2023-03-31T00:56:44.054Z,64.41
2023-03-31T00:57:43.973Z,64.39
2023-03-31T00:58:44.132Z,64.40
2023-03-31T00:59:43.956Z,64.39
2023-03-31T01:00:44.911Z,64.40
2023-03-31T01:01:44.038Z,64.43
2023-03-31T01:02:43.968Z,64.47
2023-03-31T01:03:44.052Z,64.50
2023-03-31T01:04:44.193Z,64.50
2023-03-31T01:05:44.091Z,64.53
2023-03-31T01:06:44.892Z,64.57
2023-03-31T01:07:43.924Z,64.59
2023-03-31T01:08:44.023Z,64.60
2023-03-31T01:09:43.848Z,64.62
2023-03-31T01:10:44.011Z,64.64
2023-03-31T01:11:44.731Z,64.60
2023-03-31T01:12:43.815Z,64.61
2023-03-31T01:13:43.811Z,64.60
2023-03-31T01:14:43.888Z,64.62
2023-03-31T01:15:43.769Z,64.63
2023-03-31T01:16:43.839Z,64.64
2023-03-31T01:17:44.960Z,64.65
2023-03-31T01:18:43.843Z,64.65
2023-03-31T01:19:43.818Z,64.66
2023-03-31T01:20:43.751Z,64.68
2023-03-31T01:21:43.764Z,64.71
2023-03-31T01:22:43.759Z,64.71
2023-03-31T01:23:44.630Z,64.73
2023-03-31T01:24:43.714Z,64.75
2023-03-31T01:25:43.667Z,64.73
2023-03-31T01:26:43.646Z,64.71
2023-03-31T01:27:43.657Z,64.72
2023-03-31T01:28:44.575Z,64.72
2023-03-31T01:29:43.662Z,64.73
2023-03-31T01:30:43.634Z,64.74
2023-03-31T01:31:43.736Z,64.73
2023-03-31T01:32:43.643Z,64.73
2023-03-31T01:33:43.517Z,64.73
2023-03-31T01:34:44.490Z,64.71
2023-03-31T01:35:43.673Z,64.70
2023-03-31T01:36:43.592Z,64.68
2023-03-31T01:37:43.501Z,64.68
2023-03-31T01:38:43.549Z,64.68
2023-03-31T01:39:44.375Z,64.68
2023-03-31T01:40:43.520Z,64.68
2023-03-31T01:41:43.493Z,64.66
2023-03-31T01:42:43.417Z,64.66
2023-03-31T01:43:43.439Z,64.65
2023-03-31T01:44:44.348Z,64.64
2023-03-31T01:45:43.454Z,64.60
2023-03-31T01:46:43.415Z,64.57
2023-03-31T01:47:43.368Z,64.57
2023-03-31T01:48:43.444Z,64.53
2023-03-31T01:49:44.317Z,64.53
2023-03-31T01:50:43.295Z,64.49
2023-03-31T01:51:43.412Z,64.48
2023-03-31T01:52:43.336Z,64.50
2023-03-31T01:53:44.271Z,64.45
2023-03-31T01:54:43.988Z,64.45
2023-03-31T01:55:47.094Z,64.45
2023-03-31T01:56:43.261Z,64.46
2023-03-31T01:57:43.232Z,64.47
2023-03-31T01:58:43.193Z,64.44
2023-03-31T01:59:45.149Z,64.44
2023-03-31T02:00:43.208Z,64.42
2023-03-31T02:01:44.153Z,64.40
2023-03-31T02:02:44.271Z,64.38
2023-03-31T02:03:43.300Z,64.38
2023-03-31T02:04:43.407Z,64.40
2023-03-31T02:05:44.063Z,64.39
2023-03-31T02:06:44.069Z,64.40
2023-03-31T02:07:43.052Z,64.40
2023-03-31T02:08:43.149Z,64.39
2023-03-31T02:09:46.037Z,64.39
2023-03-31T02:10:43.116Z,64.39
2023-03-31T02:11:43.966Z,64.41
2023-03-31T02:12:43.073Z,64.41
2023-03-31T02:13:44.549Z,64.41
2023-03-31T02:14:43.053Z,64.41
2023-03-31T02:15:43.004Z,64.36
2023-03-31T02:16:43.022Z,64.36
2023-03-31T02:17:43.975Z,64.37
2023-03-31T02:18:42.960Z,64.38
2023-03-31T02:19:43.956Z,64.38
2023-03-31T02:20:43.893Z,64.35
2023-03-31T02:21:42.904Z,64.33
2023-03-31T02:22:43.885Z,64.34
2023-03-31T02:23:42.898Z,64.33
2023-03-31T02:24:42.844Z,64.35
2023-03-31T02:25:42.848Z,64.36
2023-03-31T02:26:42.867Z,64.35
2023-03-31T02:27:43.731Z,64.34
2023-03-31T02:28:42.849Z,64.31
2023-03-31T02:29:42.776Z,64.29
2023-03-31T02:30:43.464Z,64.26
2023-03-31T02:31:42.912Z,64.26
2023-03-31T02:32:42.788Z,64.24
2023-03-31T02:33:43.708Z,64.25
2023-03-31T02:34:42.762Z,64.25
2023-03-31T02:35:43.815Z,64.22
2023-03-31T02:36:42.910Z,64.22
2023-03-31T02:37:42.701Z,64.21
2023-03-31T02:38:42.744Z,64.21
2023-03-31T02:39:43.631Z,64.22
2023-03-31T02:40:42.697Z,64.23
2023-03-31T02:41:42.761Z,64.25
2023-03-31T02:42:43.584Z,64.25
2023-03-31T02:43:42.753Z,64.25
2023-03-31T02:45:43.523Z,63.76
2023-03-31T02:46:43.443Z,64.33
2023-03-31T02:47:43.446Z,64.51
2023-03-31T02:48:43.411Z,64.55
2023-03-31T02:49:43.382Z,64.60
2023-03-31T02:50:44.313Z,64.60
2023-03-31T02:51:43.363Z,64.59
2023-03-31T02:52:43.381Z,64.57
2023-03-31T02:53:43.319Z,64.52
2023-03-31T02:54:43.382Z,64.48
2023-03-31T02:55:44.281Z,64.43
2023-03-31T02:56:43.417Z,64.40
2023-03-31T02:57:43.320Z,64.37
2023-03-31T02:58:43.312Z,64.35
2023-03-31T02:59:43.252Z,64.36
2023-03-31T03:00:43.254Z,64.37
2023-03-31T03:01:44.252Z,64.36
2023-03-31T03:02:43.298Z,64.34
2023-03-31T03:03:43.188Z,64.31
2023-03-31T03:04:43.180Z,64.31
2023-03-31T03:05:43.189Z,64.31
2023-03-31T03:06:44.119Z,64.32
2023-03-31T03:07:43.310Z,64.34
2023-03-31T03:08:43.114Z,64.34
2023-03-31T03:09:43.151Z,64.36
2023-03-31T03:10:43.104Z,64.35
2023-03-31T03:11:44.025Z,64.35
2023-03-31T03:12:43.123Z,64.36
2023-03-31T03:13:43.081Z,64.35
2023-03-31T03:14:43.051Z,64.33
2023-03-31T03:15:43.046Z,64.33
2023-03-31T03:16:43.178Z,64.29
2023-03-31T03:17:44.061Z,64.29
2023-03-31T03:18:43.026Z,64.29
2023-03-31T03:19:43.015Z,64.29
2023-03-31T03:20:42.974Z,64.30
2023-03-31T03:21:42.944Z,64.30
2023-03-31T03:22:43.892Z,64.30
2023-03-31T03:23:42.944Z,64.27
2023-03-31T03:24:42.948Z,64.24
2023-03-31T03:25:42.896Z,64.21
2023-03-31T03:26:42.916Z,64.21
2023-03-31T03:27:42.877Z,64.23
2023-03-31T03:28:43.842Z,64.25
2023-03-31T03:29:42.885Z,64.28
2023-03-31T03:30:42.915Z,64.30
2023-03-31T03:31:42.904Z,64.27
2023-03-31T03:32:42.893Z,64.28
2023-03-31T03:33:42.800Z,64.31
2023-03-31T03:34:43.746Z,64.34
2023-03-31T03:35:42.900Z,64.39
2023-03-31T03:36:42.807Z,64.39
2023-03-31T03:37:42.764Z,64.40
2023-03-31T03:38:42.771Z,64.38
2023-03-31T03:39:42.750Z,64.40
2023-03-31T03:40:43.667Z,64.43
2023-03-31T03:41:42.728Z,64.40
2023-03-31T03:42:42.716Z,64.36
2023-03-31T03:43:42.718Z,64.37
2023-03-31T03:44:42.657Z,64.37
2023-03-31T03:45:43.581Z,64.37
2023-03-31T03:46:42.694Z,64.39
2023-03-31T03:47:42.703Z,64.38
2023-03-31T03:48:42.635Z,64.38
2023-03-31T03:49:42.646Z,64.37
2023-03-31T03:50:43.577Z,64.37
2023-03-31T03:51:42.612Z,64.39
2023-03-31T03:52:42.608Z,64.39
2023-03-31T03:53:42.568Z,64.37
2023-03-31T03:54:42.541Z,64.37
2023-03-31T03:55:43.433Z,64.38
2023-03-31T03:56:42.577Z,64.39
2023-03-31T03:57:42.603Z,64.37
2023-03-31T03:58:42.512Z,64.38
2023-03-31T03:59:42.463Z,64.37
2023-03-31T04:00:42.443Z,64.40
2023-03-31T04:01:43.404Z,64.41
2023-03-31T04:02:42.495Z,64.40
2023-03-31T04:03:42.467Z,64.38
2023-03-31T04:04:42.504Z,64.40
2023-03-31T04:05:42.395Z,64.40
2023-03-31T04:06:43.359Z,64.38
2023-03-31T04:07:42.391Z,64.39
2023-03-31T04:08:42.345Z,64.40
2023-03-31T04:09:42.395Z,64.43
2023-03-31T04:10:42.347Z,64.42
2023-03-31T04:11:43.237Z,64.42
2023-03-31T04:12:42.295Z,64.43
2023-03-31T04:13:42.321Z,64.42
2023-03-31T04:14:42.270Z,64.41
2023-03-31T04:15:42.337Z,64.41
2023-03-31T04:16:43.194Z,64.40
2023-03-31T04:17:42.239Z,64.38
2023-03-31T04:18:42.317Z,64.37
2023-03-31T04:19:42.276Z,64.38
2023-03-31T04:20:42.188Z,64.36
2023-03-31T04:21:42.207Z,64.37
2023-03-31T04:22:48.618Z,64.38
2023-03-31T04:23:42.143Z,64.39
2023-03-31T04:24:42.133Z,64.43
2023-03-31T04:25:42.187Z,64.44
2023-03-31T04:26:42.127Z,64.47
2023-03-31T04:27:42.094Z,64.51
2023-03-31T04:28:48.407Z,64.53
2023-03-31T04:29:42.113Z,64.53
2023-03-31T04:30:42.091Z,64.57
2023-03-31T04:31:42.093Z,64.56
2023-03-31T04:32:42.075Z,64.58
2023-03-31T04:33:42.048Z,64.59
2023-03-31T04:34:42.993Z,64.55
2023-03-31T04:35:42.000Z,64.50
2023-03-31T04:36:41.984Z,64.48
2023-03-31T04:37:41.977Z,64.44
2023-03-31T04:38:41.963Z,64.44
2023-03-31T04:39:42.871Z,64.43
2023-03-31T04:40:41.964Z,64.44
2023-03-31T04:41:41.912Z,64.42
2023-03-31T04:42:41.884Z,64.43
2023-03-31T04:43:41.916Z,64.41
2023-03-31T04:44:41.877Z,64.45
2023-03-31T04:45:42.806Z,64.43
2023-03-31T04:46:41.846Z,64.43
2023-03-31T04:47:41.902Z,64.42
2023-03-31T04:48:41.839Z,64.39
2023-03-31T04:49:41.826Z,64.37
2023-03-31T04:50:48.043Z,64.40
2023-03-31T04:51:41.785Z,64.40
2023-03-31T04:52:41.778Z,64.41
2023-03-31T04:53:41.792Z,64.44
2023-03-31T04:54:41.840Z,64.41
2023-03-31T04:55:41.783Z,64.41
2023-03-31T04:56:42.747Z,64.39
2023-03-31T04:57:41.709Z,64.34
2023-03-31T04:58:41.691Z,64.35
2023-03-31T04:59:41.698Z,64.32
2023-03-31T05:00:42.067Z,64.33
2023-03-31T05:01:42.692Z,64.33
2023-03-31T05:02:41.689Z,64.32
2023-03-31T05:03:41.679Z,64.33
2023-03-31T05:04:41.630Z,64.34
2023-03-31T05:05:41.634Z,64.33
2023-03-31T05:06:41.670Z,64.35
2023-03-31T05:07:42.586Z,64.33
2023-03-31T05:08:41.557Z,64.33
2023-03-31T05:09:41.554Z,64.36
2023-03-31T05:10:41.556Z,64.41
2023-03-31T05:11:41.563Z,64.42
2023-03-31T05:12:41.514Z,64.41
2023-03-31T05:13:42.459Z,64.41
2023-03-31T05:14:41.519Z,64.43
2023-03-31T05:15:41.583Z,64.41
2023-03-31T05:16:41.610Z,64.38
2023-03-31T05:17:41.487Z,64.36
2023-03-31T05:18:41.439Z,64.35
2023-03-31T05:19:42.392Z,64.35
2023-03-31T05:20:41.443Z,64.30
2023-03-31T05:21:41.402Z,64.23
2023-03-31T05:22:43.317Z,64.18
2023-03-31T05:23:41.368Z,64.12
2023-03-31T05:24:41.468Z,64.09
2023-03-31T05:25:42.305Z,64.03
2023-03-31T05:26:41.323Z,64.01
2023-03-31T05:27:41.364Z,63.97
2023-03-31T05:28:41.364Z,63.94
2023-03-31T05:29:41.308Z,63.91
2023-03-31T05:30:41.279Z,63.87
2023-03-31T05:31:42.220Z,63.79
2023-03-31T05:32:41.343Z,63.69
2023-03-31T05:33:41.852Z,63.57
2023-03-31T05:34:41.452Z,63.49
2023-03-31T05:35:41.234Z,63.41
2023-03-31T05:36:41.219Z,63.35
2023-03-31T05:37:42.099Z,63.23
2023-03-31T05:38:41.213Z,63.12
2023-03-31T05:39:41.204Z,62.98
2023-03-31T05:40:41.165Z,62.85
2023-03-31T05:41:41.178Z,62.74
2023-03-31T05:42:42.154Z,62.66
2023-03-31T05:43:41.106Z,62.57
2023-03-31T05:44:41.120Z,62.50
2023-03-31T05:45:41.071Z,62.45
2023-03-31T05:46:41.189Z,62.44
2023-03-31T05:47:42.067Z,62.46
2023-03-31T05:48:41.183Z,62.47
2023-03-31T05:49:41.083Z,62.46
2023-03-31T05:50:41.082Z,62.46
2023-03-31T05:51:41.032Z,62.47
2023-03-31T05:52:41.961Z,62.51
2023-03-31T05:53:41.025Z,62.47
2023-03-31T05:54:40.992Z,62.41
2023-03-31T05:55:40.963Z,62.32
2023-03-31T05:56:40.969Z,62.25
2023-03-31T05:57:40.953Z,62.24
2023-03-31T05:58:41.934Z,62.23
2023-03-31T05:59:40.918Z,62.31
2023-03-31T06:00:40.906Z,62.42
2023-03-31T06:01:41.016Z,62.57
2023-03-31T06:02:40.964Z,62.72
2023-03-31T06:03:41.924Z,62.83
2023-03-31T06:04:40.976Z,62.94
2023-03-31T06:05:40.852Z,63.02
2023-03-31T06:06:40.856Z,63.08
2023-03-31T06:07:40.802Z,63.10
2023-03-31T06:08:40.848Z,63.10
2023-03-31T06:09:41.713Z,63.13
2023-03-31T06:10:40.797Z,63.14
2023-03-31T06:11:40.759Z,63.15
2023-03-31T06:12:40.786Z,63.16
2023-03-31T06:13:40.793Z,63.11
2023-03-31T06:14:41.711Z,63.08
2023-03-31T06:15:40.738Z,63.05
2023-03-31T06:16:40.712Z,63.03
2023-03-31T06:17:40.731Z,63.00
2023-03-31T06:18:40.717Z,62.95
2023-03-31T06:19:40.647Z,62.88
2023-03-31T06:20:41.613Z,62.76
2023-03-31T06:21:40.635Z,62.67
2023-03-31T06:22:40.597Z,62.58
2023-03-31T06:23:40.915Z,62.60
2023-03-31T06:24:40.618Z,62.61
2023-03-31T06:25:50.389Z,62.57
2023-03-31T06:26:43.036Z,62.53
2023-03-31T06:27:40.581Z,62.51
2023-03-31T06:28:40.547Z,62.51
2023-03-31T06:29:40.551Z,62.58
2023-03-31T06:30:40.526Z,62.68
2023-03-31T06:31:41.449Z,62.76
2023-03-31T06:32:40.550Z,62.81
2023-03-31T06:33:40.472Z,62.82
2023-03-31T06:34:40.467Z,62.77
2023-03-31T06:35:40.488Z,62.72
2023-03-31T06:36:41.377Z,62.65
2023-03-31T06:37:40.437Z,62.52
2023-03-31T06:38:40.409Z,62.35
2023-03-31T06:39:40.373Z,62.16
2023-03-31T06:40:40.442Z,61.92
2023-03-31T06:41:40.379Z,61.76
2023-03-31T06:42:41.291Z,61.55
2023-03-31T06:43:40.346Z,61.36
2023-03-31T06:44:40.362Z,61.19
2023-03-31T06:45:40.347Z,61.05
2023-03-31T06:46:40.335Z,60.91
2023-03-31T06:47:41.255Z,60.83
2023-03-31T06:48:40.330Z,60.78
2023-03-31T06:49:40.295Z,60.72
2023-03-31T06:50:40.232Z,60.65
2023-03-31T06:51:40.264Z,60.58
2023-03-31T06:52:40.247Z,60.66
2023-03-31T06:53:41.146Z,60.78
2023-03-31T06:54:40.176Z,60.88
2023-03-31T06:55:40.184Z,60.94
2023-03-31T06:56:40.199Z,60.95
2023-03-31T06:57:40.155Z,60.84
2023-03-31T06:58:42.019Z,60.66
2023-03-31T06:59:40.161Z,60.42
2023-03-31T07:00:40.143Z,60.16
2023-03-31T07:01:40.167Z,59.91
2023-03-31T07:02:40.222Z,59.67
2023-03-31T07:03:40.163Z,59.51
2023-03-31T07:04:41.007Z,59.38
2023-03-31T07:05:40.053Z,59.34
2023-03-31T07:06:40.126Z,59.44
2023-03-31T07:07:40.144Z,59.62
2023-03-31T07:08:40.051Z,59.78
2023-03-31T07:09:40.927Z,59.80
2023-03-31T07:10:40.023Z,59.84
2023-03-31T07:11:39.985Z,59.97
2023-03-31T07:12:39.971Z,60.06
2023-03-31T07:13:40.002Z,60.06
2023-03-31T07:14:39.938Z,59.97
2023-03-31T07:15:40.848Z,59.73
2023-03-31T07:16:40.038Z,59.43
2023-03-31T07:17:39.937Z,59.24
2023-03-31T07:18:41.406Z,59.27
2023-03-31T07:19:40.758Z,59.34
2023-03-31T07:20:40.794Z,59.37
2023-03-31T07:21:39.833Z,59.34
2023-03-31T07:22:39.860Z,59.23
2023-03-31T07:23:39.810Z,59.14
2023-03-31T07:24:39.794Z,59.13
2023-03-31T07:25:39.857Z,59.08
2023-03-31T07:26:40.734Z,59.03
2023-03-31T07:27:39.751Z,58.94
2023-03-31T07:28:39.780Z,58.95
2023-03-31T07:29:39.747Z,58.99
2023-03-31T07:30:39.746Z,59.02
2023-03-31T07:31:39.756Z,59.05
2023-03-31T07:32:40.754Z,59.06
2023-03-31T07:33:39.720Z,59.17
2023-03-31T07:34:39.693Z,59.32
2023-03-31T07:35:39.670Z,59.48
2023-03-31T07:36:39.685Z,59.65
2023-03-31T07:37:40.623Z,59.78
2023-03-31T07:38:39.628Z,59.97
2023-03-31T07:39:39.634Z,60.12
2023-03-31T07:40:39.585Z,60.20
2023-03-31T07:41:39.581Z,60.20
2023-03-31T07:42:40.540Z,60.16
2023-03-31T07:43:39.559Z,60.04
2023-03-31T07:44:39.566Z,59.86
2023-03-31T07:45:39.606Z,59.69
2023-03-31T07:46:39.606Z,59.45
2023-03-31T07:47:40.524Z,59.19
2023-03-31T07:48:39.510Z,58.91
2023-03-31T07:49:39.495Z,58.58
2023-03-31T07:50:39.501Z,58.22
2023-03-31T07:51:39.451Z,57.83
2023-03-31T07:52:39.494Z,57.41
2023-03-31T07:53:40.410Z,57.01
2023-03-31T07:54:39.468Z,56.62
2023-03-31T07:55:39.373Z,56.23
2023-03-31T07:56:39.363Z,56.02
2023-03-31T07:57:39.372Z,55.86
2023-03-31T07:58:40.292Z,56.00
2023-03-31T07:59:39.353Z,56.09
2023-03-31T08:00:39.353Z,56.10
2023-03-31T08:01:39.332Z,56.17
2023-03-31T08:02:39.439Z,55.84
2023-03-31T08:03:39.373Z,55.70
2023-03-31T08:04:40.257Z,55.68
2023-03-31T08:05:39.369Z,55.68
2023-03-31T08:06:39.290Z,55.75
2023-03-31T08:07:39.328Z,55.99
2023-03-31T08:08:39.236Z,56.25
2023-03-31T08:09:40.165Z,56.51
2023-03-31T08:10:39.198Z,56.71
2023-03-31T08:11:39.237Z,56.81
2023-03-31T08:12:39.181Z,56.90
2023-03-31T08:13:39.178Z,56.96
2023-03-31T08:14:41.686Z,56.96
2023-03-31T08:15:40.096Z,56.94
2023-03-31T08:16:39.229Z,56.96
2023-03-31T08:17:39.193Z,57.02
2023-03-31T08:18:39.143Z,57.16
2023-03-31T08:19:39.127Z,57.28
2023-03-31T08:20:39.126Z,57.41
2023-03-31T08:21:40.067Z,57.49
2023-03-31T08:22:39.077Z,57.51
2023-03-31T08:23:39.061Z,57.37
2023-03-31T08:24:39.019Z,57.34
2023-03-31T08:25:39.014Z,57.35
2023-03-31T08:26:39.048Z,57.28
2023-03-31T08:27:39.937Z,57.19
2023-03-31T08:28:38.993Z,57.08
2023-03-31T08:29:38.949Z,56.92
2023-03-31T08:30:38.952Z,56.91
2023-03-31T08:31:39.035Z,56.96
2023-03-31T08:32:39.919Z,57.03
2023-03-31T08:33:39.155Z,57.07
2023-03-31T08:34:39.577Z,57.09
2023-03-31T08:35:38.947Z,57.08
2023-03-31T08:36:38.854Z,57.08
2023-03-31T08:37:38.885Z,57.09
2023-03-31T08:38:39.775Z,57.02
2023-03-31T08:39:38.862Z,56.81
2023-03-31T08:40:38.809Z,56.63
2023-03-31T08:41:38.801Z,56.65
2023-03-31T08:42:38.789Z,56.73
2023-03-31T08:43:39.741Z,56.86
2023-03-31T08:44:38.771Z,56.98
2023-03-31T08:45:38.775Z,57.10
2023-03-31T08:46:38.836Z,57.18
2023-03-31T08:47:38.821Z,57.29
2023-03-31T08:48:38.740Z,57.45
2023-03-31T08:49:39.649Z,57.60
2023-03-31T08:50:38.697Z,57.71
2023-03-31T08:51:38.657Z,57.80
2023-03-31T08:52:38.644Z,57.77
2023-03-31T08:53:38.642Z,57.66
2023-03-31T08:54:39.565Z,57.45
2023-03-31T08:55:38.661Z,57.23
2023-03-31T08:56:38.629Z,56.99
2023-03-31T08:57:38.593Z,56.83
2023-03-31T08:58:38.632Z,56.73
2023-03-31T08:59:38.558Z,56.42
2023-03-31T09:00:39.515Z,56.13
2023-03-31T09:01:52.292Z,55.96
2023-03-31T09:02:40.143Z,55.74
2023-03-31T09:03:38.700Z,55.32
2023-03-31T09:04:38.514Z,55.21
2023-03-31T09:05:46.108Z,55.18
2023-03-31T09:06:40.916Z,55.14
2023-03-31T09:07:38.470Z,55.16
2023-03-31T09:08:38.493Z,54.81
2023-03-31T09:09:38.458Z,54.65
2023-03-31T09:10:38.417Z,54.24
2023-03-31T09:11:39.347Z,54.22
2023-03-31T09:12:38.392Z,54.02
2023-03-31T09:13:38.405Z,53.19
2023-03-31T09:14:38.406Z,53.13
2023-03-31T09:15:38.354Z,53.03
2023-03-31T09:16:38.388Z,52.93
2023-03-31T09:17:39.295Z,52.84
2023-03-31T09:18:38.346Z,52.70
2023-03-31T09:19:38.449Z,52.55
2023-03-31T09:20:38.308Z,52.42
2023-03-31T09:21:38.300Z,52.46
2023-03-31T09:22:38.300Z,52.56
2023-03-31T09:23:39.187Z,52.59
2023-03-31T09:24:38.249Z,52.60
2023-03-31T09:25:38.247Z,52.68
2023-03-31T09:26:38.212Z,52.63
2023-03-31T09:27:38.268Z,52.56
2023-03-31T09:28:38.210Z,52.74
2023-03-31T09:29:40.947Z,52.79
2023-03-31T09:30:38.168Z,52.53
2023-03-31T09:31:38.191Z,52.16
2023-03-31T09:32:39.067Z,51.52
2023-03-31T09:33:38.121Z,51.19
2023-03-31T09:34:38.130Z,50.93
2023-03-31T09:35:39.058Z,50.56
2023-03-31T09:36:38.465Z,50.39
2023-03-31T09:37:38.123Z,49.97
2023-03-31T09:38:38.106Z,49.88
2023-03-31T09:39:38.088Z,50.56
2023-03-31T09:40:38.091Z,51.55
2023-03-31T09:41:38.975Z,52.11
2023-03-31T09:42:38.040Z,52.44
2023-03-31T09:43:38.021Z,52.75
2023-03-31T09:44:38.036Z,53.30
2023-03-31T09:45:38.024Z,54.12
2023-03-31T09:46:37.994Z,55.15
2023-03-31T09:47:38.944Z,56.07
2023-03-31T09:48:37.944Z,56.62
2023-03-31T09:49:38.010Z,57.00
2023-03-31T09:50:38.004Z,57.28
2023-03-31T09:51:38.033Z,57.74
2023-03-31T09:52:38.109Z,58.31
2023-03-31T09:53:38.883Z,58.61
2023-03-31T09:54:37.875Z,58.66
2023-03-31T09:55:40.154Z,58.84
2023-03-31T09:56:37.845Z,59.14
2023-03-31T09:57:37.932Z,59.41
2023-03-31T09:58:38.735Z,59.73
2023-03-31T09:59:37.800Z,60.18
2023-03-31T10:00:37.792Z,60.57
2023-03-31T10:01:37.891Z,60.87
2023-03-31T10:02:37.878Z,61.02
2023-03-31T10:03:38.746Z,61.09
2023-03-31T10:04:37.862Z,61.18
2023-03-31T10:05:37.772Z,61.43
2023-03-31T10:06:37.756Z,61.81
2023-03-31T10:07:37.731Z,62.18
2023-03-31T10:08:37.713Z,62.55
2023-03-31T10:09:38.594Z,62.79
2023-03-31T10:10:37.690Z,62.91
2023-03-31T10:11:37.702Z,62.86
2023-03-31T10:12:37.696Z,62.83
2023-03-31T10:13:37.671Z,62.90
2023-03-31T10:14:38.549Z,62.97
2023-03-31T10:15:38.746Z,62.95
2023-03-31T10:16:37.636Z,62.67
2023-03-31T10:17:47.219Z,62.27
2023-03-31T10:18:39.074Z,61.71
2023-03-31T10:19:38.484Z,60.95
2023-03-31T10:20:37.568Z,60.03
2023-03-31T10:21:37.551Z,59.07
2023-03-31T10:22:37.513Z,58.16
2023-03-31T10:23:37.537Z,57.19
2023-03-31T10:24:37.519Z,56.26
2023-03-31T10:25:38.398Z,55.26
2023-03-31T10:26:37.473Z,54.47
2023-03-31T10:27:37.490Z,54.23
2023-03-31T10:28:37.451Z,54.20
2023-03-31T10:29:37.443Z,53.94
2023-03-31T10:30:37.404Z,53.43
2023-03-31T10:31:38.348Z,53.29
2023-03-31T10:32:37.403Z,53.42
2023-03-31T10:33:37.592Z,53.56
2023-03-31T10:34:37.359Z,53.81
2023-03-31T10:35:37.377Z,54.06
2023-03-31T10:36:38.237Z,54.05
2023-03-31T10:37:38.369Z,54.28
2023-03-31T10:38:38.274Z,54.45
2023-03-31T10:39:37.295Z,54.53
2023-03-31T10:40:37.305Z,54.72
2023-03-31T10:41:37.262Z,54.88
2023-03-31T10:42:38.167Z,54.99
2023-03-31T10:43:37.254Z,55.19
2023-03-31T10:44:37.235Z,55.46
2023-03-31T10:45:38.498Z,55.89
2023-03-31T10:46:37.248Z,56.42
2023-03-31T10:47:38.142Z,56.96
2023-03-31T10:48:37.172Z,57.43
2023-03-31T10:49:37.161Z,57.86
2023-03-31T10:50:37.180Z,58.25
2023-03-31T10:51:37.140Z,58.55
2023-03-31T10:52:37.105Z,58.76
2023-03-31T10:53:38.072Z,58.89
2023-03-31T10:54:37.082Z,58.78
2023-03-31T10:55:37.062Z,58.43
2023-03-31T10:56:37.046Z,57.68
2023-03-31T10:57:37.131Z,56.76
2023-03-31T10:58:37.966Z,56.19
2023-03-31T10:59:37.044Z,55.93
2023-03-31T11:00:37.100Z,55.60
2023-03-31T11:01:37.067Z,55.06
2023-03-31T11:02:37.044Z,54.51
2023-03-31T11:03:37.011Z,53.99
2023-03-31T11:04:38.009Z,53.78
2023-03-31T11:05:36.987Z,54.07
2023-03-31T11:06:36.939Z,54.41
2023-03-31T11:07:36.951Z,54.47
2023-03-31T11:08:36.929Z,54.70
2023-03-31T11:09:37.830Z,55.25
2023-03-31T11:10:36.918Z,55.81
2023-03-31T11:11:36.922Z,55.92
2023-03-31T11:12:36.845Z,55.50
2023-03-31T11:13:36.939Z,55.01
2023-03-31T11:14:36.845Z,54.43
2023-03-31T11:15:37.815Z,53.76
2023-03-31T11:16:36.884Z,52.97
2023-03-31T11:17:36.845Z,52.07
2023-03-31T11:18:36.808Z,50.70
2023-03-31T11:19:36.797Z,49.37
2023-03-31T11:20:37.727Z,48.45
2023-03-31T11:21:36.812Z,48.31
2023-03-31T11:22:36.720Z,48.71
2023-03-31T11:23:36.756Z,49.32
2023-03-31T11:24:36.741Z,49.75
2023-03-31T11:25:42.960Z,49.77
2023-03-31T11:26:36.697Z,49.70
2023-03-31T11:27:36.668Z,49.76
2023-03-31T11:28:36.663Z,50.06
2023-03-31T11:29:36.635Z,50.28
2023-03-31T11:30:36.642Z,50.43
2023-03-31T11:31:37.618Z,50.59
2023-03-31T11:32:36.667Z,50.82
2023-03-31T11:33:36.577Z,50.97
2023-03-31T11:34:36.571Z,51.05
2023-03-31T11:35:36.586Z,51.20
2023-03-31T11:36:37.498Z,51.43
2023-03-31T11:37:36.578Z,51.73
2023-03-31T11:38:36.532Z,51.89
2023-03-31T11:39:36.523Z,52.00
2023-03-31T11:40:36.522Z,52.21
2023-03-31T11:41:36.514Z,52.36
2023-03-31T11:42:37.417Z,52.55
2023-03-31T11:43:36.494Z,52.73
2023-03-31T11:44:36.448Z,52.90
2023-03-31T11:45:36.409Z,53.00
2023-03-31T11:46:36.478Z,52.97
2023-03-31T11:47:37.388Z,53.06
2023-03-31T11:48:36.455Z,53.38
2023-03-31T11:49:36.412Z,53.82
2023-03-31T11:50:36.427Z,54.43
2023-03-31T11:51:36.354Z,55.12
2023-03-31T11:52:36.349Z,55.82
2023-03-31T11:53:37.311Z,56.41
2023-03-31T11:54:36.326Z,56.96
2023-03-31T11:55:36.310Z,57.33
2023-03-31T11:56:36.319Z,57.58
2023-03-31T11:57:36.340Z,57.91
2023-03-31T11:58:36.259Z,58.27
2023-03-31T11:59:37.240Z,58.74
2023-03-31T12:00:36.234Z,59.23
2023-03-31T12:01:36.290Z,59.71
2023-03-31T12:02:36.252Z,60.23
2023-03-31T12:03:36.332Z,60.65
2023-03-31T12:04:37.135Z,60.91
2023-03-31T12:05:36.181Z,60.93
2023-03-31T12:06:36.175Z,60.81
2023-03-31T12:07:36.169Z,60.58
2023-03-31T12:08:36.204Z,60.33
2023-03-31T12:09:37.085Z,60.11
2023-03-31T12:10:36.127Z,59.82
2023-03-31T12:11:36.093Z,59.46
2023-03-31T12:12:36.069Z,59.00
2023-03-31T12:13:36.093Z,58.47
2023-03-31T12:14:36.080Z,57.96
2023-03-31T12:15:37.016Z,57.49
2023-03-31T12:16:36.198Z,57.01
2023-03-31T12:17:36.117Z,56.56
2023-03-31T12:18:36.011Z,56.32
2023-03-31T12:19:36.000Z,56.45
2023-03-31T12:20:36.918Z,56.68
2023-03-31T12:21:35.950Z,56.78
2023-03-31T12:22:35.993Z,57.03
2023-03-31T12:23:35.937Z,57.50
2023-03-31T12:24:35.974Z,57.86
2023-03-31T12:25:36.866Z,58.12
2023-03-31T12:26:35.885Z,58.50
2023-03-31T12:27:35.929Z,58.41
2023-03-31T12:28:35.876Z,57.97
2023-03-31T12:29:35.861Z,57.70
2023-03-31T12:30:35.843Z,57.77
2023-03-31T12:31:36.867Z,57.90
2023-03-31T12:32:35.861Z,58.01
2023-03-31T12:33:35.849Z,57.89
2023-03-31T12:34:35.833Z,57.58
2023-03-31T12:35:35.831Z,57.67
2023-03-31T12:36:36.701Z,58.11
2023-03-31T12:37:35.743Z,58.57
2023-03-31T12:38:35.745Z,59.11
2023-03-31T12:39:35.778Z,59.73
2023-03-31T12:40:35.701Z,60.30
2023-03-31T12:41:35.721Z,60.80
2023-03-31T12:42:36.632Z,61.23
2023-03-31T12:43:35.687Z,61.62
2023-03-31T12:44:35.712Z,61.94
2023-03-31T12:45:35.722Z,62.21
2023-03-31T12:46:35.720Z,62.46
2023-03-31T12:47:36.625Z,62.67
2023-03-31T12:48:35.651Z,62.90
2023-03-31T12:49:35.604Z,63.14
2023-03-31T12:50:35.618Z,63.39
2023-03-31T12:51:35.606Z,63.68
2023-03-31T12:52:36.511Z,63.94
2023-03-31T12:53:35.564Z,64.21